createdAt,value
2024-01-31T00:02:33.662Z,45.44
2024-01-31T00:05:18.503Z,45.44
2024-01-31T00:08:03.919Z,45.25
2024-01-31T00:10:48.969Z,45.16
2024-01-31T00:13:33.980Z,45.08
2024-01-31T00:16:18.947Z,45.48
2024-01-31T00:19:03.929Z,45.14
2024-01-31T00:21:49.160Z,45.59
2024-01-31T00:24:33.898Z,45.69
2024-01-31T00:27:18.914Z,46.10
2024-01-31T00:30:03.926Z,46.35
2024-01-31T00:32:48.998Z,46.43
2024-01-31T00:35:34.121Z,46.98
2024-01-31T00:38:18.977Z,46.60
2024-01-31T00:41:04.204Z,46.14
2024-01-31T00:43:48.891Z,45.90
2024-01-31T00:46:33.682Z,45.73
2024-01-31T00:49:21.797Z,45.62
2024-01-31T00:52:08.834Z,45.57
2024-01-31T00:54:53.734Z,45.50
2024-01-31T00:57:38.661Z,45.40
2024-01-31T01:00:23.679Z,45.04
2024-01-31T01:03:08.743Z,45.21
2024-01-31T01:05:53.701Z,45.39
2024-01-31T01:08:38.290Z,45.86
2024-01-31T01:11:23.214Z,45.54
2024-01-31T01:14:08.215Z,46.01
2024-01-31T01:16:53.096Z,46.41
2024-01-31T01:19:38.071Z,46.48
2024-01-31T01:22:23.051Z,46.63
2024-01-31T01:25:07.915Z,46.47
2024-01-31T01:27:52.873Z,46.28
2024-01-31T01:30:37.796Z,46.38
2024-01-31T01:33:22.754Z,46.67
2024-01-31T01:36:07.553Z,46.33
2024-01-31T01:38:52.678Z,46.31
2024-01-31T01:41:37.380Z,46.18
2024-01-31T01:44:22.459Z,46.13
2024-01-31T01:47:07.509Z,46.82
2024-01-31T01:49:52.335Z,46.76
2024-01-31T01:52:37.672Z,47.10
2024-01-31T01:55:22.638Z,46.89
2024-01-31T01:58:07.533Z,47.17
2024-01-31T02:00:52.419Z,47.57
2024-01-31T02:03:37.291Z,46.84
2024-01-31T02:06:22.269Z,47.11
2024-01-31T02:09:07.254Z,47.00
2024-01-31T02:11:52.204Z,46.65
2024-01-31T02:14:36.933Z,46.89
2024-01-31T02:17:21.911Z,46.43
2024-01-31T02:20:06.787Z,46.01
2024-01-31T02:22:51.894Z,45.82
2024-01-31T02:25:36.992Z,46.05
2024-01-31T02:28:22.052Z,45.71
2024-01-31T02:31:06.917Z,45.51
2024-01-31T02:33:51.913Z,45.51
2024-01-31T02:36:36.840Z,45.35
2024-01-31T02:39:21.901Z,45.58
2024-01-31T02:42:06.936Z,45.49
2024-01-31T02:44:51.526Z,45.37
2024-01-31T02:47:36.360Z,45.64
2024-01-31T02:50:21.321Z,45.48
2024-01-31T02:53:06.594Z,45.43
2024-01-31T02:55:51.242Z,45.44
2024-01-31T02:58:36.364Z,45.63
2024-01-31T03:01:21.362Z,44.88
2024-01-31T03:04:06.384Z,45.08
2024-01-31T03:06:51.141Z,45.23
2024-01-31T03:09:35.961Z,45.76
2024-01-31T03:12:21.044Z,46.30
2024-01-31T03:15:06.058Z,46.22
2024-01-31T03:17:51.224Z,46.12
2024-01-31T03:20:36.185Z,45.61
2024-01-31T03:23:21.171Z,45.65
2024-01-31T03:26:06.085Z,46.04
2024-01-31T03:28:51.062Z,45.97
2024-01-31T03:31:36.074Z,46.48
2024-01-31T03:34:21.087Z,46.32
2024-01-31T03:37:06.116Z,45.98
2024-01-31T03:39:51.061Z,46.39
2024-01-31T03:42:36.235Z,46.31
2024-01-31T03:45:20.966Z,46.67
2024-01-31T03:48:06.125Z,46.64
2024-01-31T03:50:50.984Z,46.32
2024-01-31T03:53:35.639Z,46.67
2024-01-31T03:56:20.679Z,46.14
2024-01-31T03:59:05.577Z,46.02
2024-01-31T04:01:50.721Z,45.83
2024-01-31T04:04:35.703Z,45.85
2024-01-31T04:07:20.571Z,45.41
2024-01-31T04:10:05.453Z,45.29
2024-01-31T04:12:50.429Z,45.43
2024-01-31T04:15:35.102Z,45.90
2024-01-31T04:18:20.340Z,45.64
2024-01-31T04:21:05.225Z,45.16
2024-01-31T04:23:49.804Z,46.56
2024-01-31T04:26:34.814Z,46.87
2024-01-31T04:29:19.701Z,46.67
2024-01-31T04:32:04.565Z,46.03
2024-01-31T04:34:49.158Z,45.64
2024-01-31T04:37:34.241Z,46.47
2024-01-31T04:40:19.483Z,45.78
2024-01-31T04:43:04.228Z,45.18
2024-01-31T04:45:48.988Z,44.91
2024-01-31T04:48:34.209Z,45.73
2024-01-31T04:51:19.303Z,45.37
2024-01-31T04:54:03.937Z,44.96
2024-01-31T04:56:48.972Z,44.89
2024-01-31T04:59:33.862Z,44.90
2024-01-31T05:02:18.892Z,45.00
2024-01-31T05:05:04.087Z,45.43
2024-01-31T05:07:48.838Z,45.38
2024-01-31T05:10:33.947Z,45.11
2024-01-31T05:13:18.533Z,45.43
2024-01-31T05:16:03.330Z,45.51
2024-01-31T05:18:48.269Z,46.05
2024-01-31T05:21:33.500Z,45.75
2024-01-31T05:24:18.221Z,45.14
2024-01-31T05:27:03.296Z,45.19
2024-01-31T05:29:48.090Z,45.47
2024-01-31T05:32:33.061Z,45.55
2024-01-31T05:35:18.009Z,45.04
2024-01-31T05:38:02.873Z,44.99
2024-01-31T05:40:47.641Z,44.63
2024-01-31T05:43:32.652Z,44.25
2024-01-31T05:46:17.804Z,45.12
2024-01-31T05:49:02.684Z,45.66
2024-01-31T05:51:47.770Z,45.11
2024-01-31T05:54:32.648Z,44.96
2024-01-31T05:57:17.382Z,45.06
2024-01-31T06:00:02.485Z,45.30
2024-01-31T06:02:49.868Z,44.91
2024-01-31T06:05:37.021Z,45.19
2024-01-31T06:08:21.823Z,45.23
2024-01-31T06:11:06.820Z,45.76
2024-01-31T06:13:51.506Z,45.74
2024-01-31T06:16:36.503Z,46.08
2024-01-31T06:19:21.477Z,46.08
2024-01-31T06:22:06.534Z,45.49
2024-01-31T06:24:51.500Z,45.29
2024-01-31T06:27:36.445Z,45.21
2024-01-31T06:30:21.446Z,45.23
2024-01-31T06:33:06.533Z,45.30
2024-01-31T06:35:51.582Z,44.91
2024-01-31T06:38:36.637Z,44.89
2024-01-31T06:41:21.365Z,44.59
2024-01-31T06:44:06.484Z,44.76
2024-01-31T06:46:51.386Z,44.61
2024-01-31T06:49:36.443Z,44.45
2024-01-31T06:52:21.500Z,44.96
2024-01-31T06:55:06.418Z,45.21
2024-01-31T06:57:51.515Z,44.68
2024-01-31T07:00:36.229Z,44.96
2024-01-31T07:03:21.367Z,45.30
2024-01-31T07:06:06.232Z,46.02
2024-01-31T07:08:51.032Z,45.87
2024-01-31T07:11:35.940Z,45.77
2024-01-31T07:14:20.656Z,46.27
2024-01-31T07:17:05.388Z,46.08
2024-01-31T07:19:50.392Z,46.55
2024-01-31T07:22:35.538Z,46.35
2024-01-31T07:25:20.313Z,45.51
2024-01-31T07:28:05.233Z,45.37
2024-01-31T07:30:50.188Z,45.24
2024-01-31T07:33:34.880Z,45.10
2024-01-31T07:36:19.749Z,44.73
2024-01-31T07:39:04.807Z,44.96
2024-01-31T07:41:49.706Z,45.23
2024-01-31T07:44:34.623Z,45.02
2024-01-31T07:47:19.598Z,45.16
2024-01-31T07:50:04.377Z,44.79
2024-01-31T07:52:49.384Z,44.71
2024-01-31T07:55:34.131Z,45.14
2024-01-31T07:58:18.789Z,45.27
2024-01-31T08:01:03.565Z,45.18
2024-01-31T08:03:48.610Z,44.80
2024-01-31T08:06:33.326Z,44.31
2024-01-31T08:09:22.736Z,44.14
2024-01-31T08:12:08.253Z,43.28
2024-01-31T08:14:52.988Z,43.21
2024-01-31T08:17:37.983Z,42.78
2024-01-31T08:20:23.117Z,43.27
2024-01-31T08:23:07.982Z,41.93
2024-01-31T08:25:53.086Z,41.06
2024-01-31T08:28:38.169Z,40.22
2024-01-31T08:31:23.064Z,40.12
2024-01-31T08:34:08.093Z,40.26
2024-01-31T08:36:53.152Z,40.00
2024-01-31T08:39:38.088Z,39.52
2024-01-31T08:42:23.154Z,39.00
2024-01-31T08:45:08.031Z,39.25
2024-01-31T08:47:52.892Z,39.24
2024-01-31T08:50:37.834Z,38.96
2024-01-31T08:53:22.722Z,39.18
2024-01-31T08:56:09.737Z,38.79
2024-01-31T08:58:55.148Z,39.23
2024-01-31T09:01:39.971Z,39.56
2024-01-31T09:04:25.061Z,39.77
2024-01-31T09:07:10.012Z,39.86
2024-01-31T09:09:55.019Z,39.71
2024-01-31T09:12:39.974Z,40.04
2024-01-31T09:15:24.805Z,39.68
2024-01-31T09:18:09.963Z,39.86
2024-01-31T09:20:54.787Z,39.36
2024-01-31T09:23:39.797Z,39.17
2024-01-31T09:26:24.537Z,38.67
2024-01-31T09:29:09.468Z,38.72
2024-01-31T09:31:54.369Z,38.63
2024-01-31T09:34:39.356Z,37.68
2024-01-31T09:37:24.163Z,38.37
2024-01-31T09:40:11.280Z,38.60
2024-01-31T09:42:56.631Z,38.97
2024-01-31T09:45:41.639Z,39.38
2024-01-31T09:48:26.860Z,39.53
2024-01-31T09:51:11.446Z,40.40
2024-01-31T09:53:56.165Z,39.92
2024-01-31T09:56:41.167Z,40.49
2024-01-31T09:59:25.872Z,39.83
2024-01-31T10:02:10.915Z,40.39
2024-01-31T10:04:56.096Z,38.86
2024-01-31T10:07:41.083Z,38.11
2024-01-31T10:10:26.086Z,36.95
2024-01-31T10:13:11.090Z,37.25
2024-01-31T10:15:56.033Z,37.46
2024-01-31T10:18:41.142Z,37.57
2024-01-31T10:21:25.950Z,37.29
2024-01-31T10:24:10.893Z,37.53
2024-01-31T10:26:55.688Z,36.85
2024-01-31T10:29:40.431Z,38.00
2024-01-31T10:32:25.672Z,38.20
2024-01-31T10:35:26.487Z,38.28
2024-01-31T10:38:15.991Z,38.21
2024-01-31T10:41:01.412Z,37.91
2024-01-31T10:43:46.550Z,38.05
2024-01-31T10:46:31.343Z,38.46
2024-01-31T10:49:16.174Z,38.70
2024-01-31T10:52:01.497Z,38.20
2024-01-31T10:54:46.473Z,38.06
2024-01-31T10:57:31.310Z,37.96
2024-01-31T11:00:16.564Z,38.30
2024-01-31T11:03:01.658Z,38.48
2024-01-31T11:05:47.173Z,38.04
2024-01-31T11:08:32.051Z,38.06
2024-01-31T11:11:17.065Z,38.10
2024-01-31T11:14:02.193Z,38.84
2024-01-31T11:16:47.005Z,38.09
2024-01-31T11:19:32.086Z,38.33
2024-01-31T11:22:16.693Z,38.20
2024-01-31T11:25:01.808Z,37.96
2024-01-31T11:27:46.722Z,37.73
2024-01-31T11:30:31.656Z,37.46
2024-01-31T11:33:16.686Z,37.21
2024-01-31T11:36:01.818Z,37.56
2024-01-31T11:38:46.752Z,37.60
2024-01-31T11:41:31.622Z,37.13
2024-01-31T11:44:16.572Z,38.10
2024-01-31T11:47:01.284Z,38.13
2024-01-31T11:49:46.535Z,38.14
2024-01-31T11:52:31.397Z,38.00
2024-01-31T11:55:16.585Z,37.75
2024-01-31T11:58:01.244Z,37.77
2024-01-31T12:00:46.305Z,37.64
2024-01-31T12:03:31.293Z,38.09
2024-01-31T12:06:16.382Z,38.46
2024-01-31T12:09:01.661Z,38.17
2024-01-31T12:11:46.444Z,38.26
2024-01-31T12:14:31.313Z,38.01
2024-01-31T12:17:15.851Z,37.82
2024-01-31T12:20:01.025Z,38.10
2024-01-31T12:22:45.748Z,36.75
2024-01-31T12:25:30.732Z,37.13
2024-01-31T12:28:15.817Z,37.60
2024-01-31T12:31:00.808Z,37.54
2024-01-31T12:33:45.739Z,37.29
2024-01-31T12:36:30.544Z,36.72
2024-01-31T12:39:15.621Z,36.76
2024-01-31T12:42:00.568Z,37.46
2024-01-31T12:44:46.017Z,37.53
2024-01-31T12:47:31.038Z,37.55
2024-01-31T12:50:16.012Z,37.59
2024-01-31T12:53:01.073Z,36.81
2024-01-31T12:55:46.027Z,36.29
2024-01-31T12:58:31.012Z,36.90
2024-01-31T13:01:15.980Z,37.28
2024-01-31T13:04:01.024Z,37.09
2024-01-31T13:06:46.529Z,36.60
2024-01-31T13:09:31.808Z,36.57
2024-01-31T13:12:16.887Z,35.88
2024-01-31T13:15:02.086Z,36.44
2024-01-31T13:17:47.140Z,36.50
2024-01-31T13:20:32.409Z,36.13
2024-01-31T13:23:17.064Z,36.39
2024-01-31T13:26:02.135Z,36.02
2024-01-31T13:28:47.098Z,36.16
2024-01-31T13:31:32.024Z,36.80
2024-01-31T13:34:17.257Z,36.95
2024-01-31T13:37:02.250Z,36.41
2024-01-31T13:39:47.159Z,36.14
2024-01-31T13:42:32.230Z,35.76
2024-01-31T13:45:17.224Z,35.61
2024-01-31T13:48:02.253Z,36.16
2024-01-31T13:50:47.061Z,35.46
2024-01-31T13:53:32.065Z,35.53
2024-01-31T13:56:17.034Z,35.31
2024-01-31T13:59:02.008Z,35.64
2024-01-31T14:01:46.738Z,35.59
2024-01-31T14:04:31.817Z,36.15
2024-01-31T14:07:16.593Z,37.02
2024-01-31T14:10:01.557Z,36.46
2024-01-31T14:12:46.705Z,36.40
2024-01-31T14:15:31.654Z,36.25
2024-01-31T14:18:16.998Z,36.13
2024-01-31T14:21:02.177Z,36.14
2024-01-31T14:23:49.895Z,36.29
2024-01-31T14:26:37.110Z,36.45
2024-01-31T14:29:22.242Z,36.81
2024-01-31T14:32:07.242Z,37.34
2024-01-31T14:34:52.242Z,37.96
2024-01-31T14:37:36.979Z,38.75
2024-01-31T14:40:21.759Z,37.68
2024-01-31T14:43:06.707Z,38.11
2024-01-31T14:45:51.946Z,38.12
2024-01-31T14:48:36.850Z,38.60
2024-01-31T14:51:22.014Z,38.77
2024-01-31T14:54:07.183Z,39.22
2024-01-31T14:56:52.054Z,39.26
2024-01-31T14:59:37.025Z,39.36
2024-01-31T15:02:22.006Z,39.36
2024-01-31T15:05:07.055Z,39.82
2024-01-31T15:07:51.721Z,39.28
2024-01-31T15:10:36.767Z,39.66
2024-01-31T15:13:21.587Z,39.62
2024-01-31T15:16:06.497Z,40.02
2024-01-31T15:18:51.324Z,39.58
2024-01-31T15:21:36.350Z,40.29
2024-01-31T15:24:21.287Z,40.04
2024-01-31T15:27:05.880Z,39.78
2024-01-31T15:29:50.899Z,40.15
2024-01-31T15:32:35.476Z,40.16
2024-01-31T15:35:20.732Z,40.04
2024-01-31T15:38:05.769Z,40.27
2024-01-31T15:40:50.616Z,39.78
2024-01-31T15:43:35.623Z,39.48
2024-01-31T15:46:20.432Z,40.30
2024-01-31T15:49:05.477Z,39.08
2024-01-31T15:51:50.313Z,39.02
2024-01-31T15:54:35.384Z,39.04
2024-01-31T15:57:20.055Z,39.83
2024-01-31T16:00:05.076Z,39.73
2024-01-31T16:02:49.897Z,39.80
2024-01-31T16:05:34.718Z,39.98
2024-01-31T16:08:19.770Z,39.85
2024-01-31T16:11:04.692Z,40.03
2024-01-31T16:13:49.565Z,39.99
2024-01-31T16:16:34.257Z,39.86
2024-01-31T16:19:19.222Z,40.34
2024-01-31T16:22:04.090Z,40.54
2024-01-31T16:24:48.876Z,41.02
2024-01-31T16:27:35.426Z,40.34
2024-01-31T16:30:21.394Z,40.00
2024-01-31T16:33:06.215Z,39.59
2024-01-31T16:35:50.993Z,38.95
2024-01-31T16:38:35.972Z,38.79
2024-01-31T16:41:20.784Z,38.62
2024-01-31T16:44:05.785Z,39.06
2024-01-31T16:46:50.567Z,39.23
2024-01-31T16:49:35.695Z,39.18
2024-01-31T16:52:20.717Z,39.22
2024-01-31T16:55:05.629Z,39.88
2024-01-31T16:57:50.851Z,39.86
2024-01-31T17:00:35.713Z,40.50
2024-01-31T17:03:20.630Z,40.95
2024-01-31T17:06:05.574Z,40.58
2024-01-31T17:08:50.600Z,40.23
2024-01-31T17:11:35.255Z,41.01
2024-01-31T17:14:23.028Z,40.99
2024-01-31T17:17:09.823Z,41.07
2024-01-31T17:19:54.666Z,41.31
2024-01-31T17:22:39.738Z,41.29
2024-01-31T17:25:24.801Z,41.39
2024-01-31T17:28:09.683Z,41.61
2024-01-31T17:30:54.893Z,41.41
2024-01-31T17:33:39.678Z,41.08
2024-01-31T17:36:24.661Z,41.69
2024-01-31T17:39:09.593Z,41.72
2024-01-31T17:41:54.564Z,41.77
2024-01-31T17:44:39.627Z,41.44
2024-01-31T17:47:24.420Z,41.53
2024-01-31T17:50:09.400Z,41.40
2024-01-31T17:52:54.341Z,41.87
2024-01-31T17:55:39.409Z,41.34
2024-01-31T17:58:24.333Z,41.45
2024-01-31T18:01:09.566Z,41.66
2024-01-31T18:03:54.582Z,41.63
2024-01-31T18:06:39.547Z,41.84
2024-01-31T18:09:24.533Z,42.47
2024-01-31T18:12:15.939Z,41.96
2024-01-31T18:15:07.707Z,42.10
2024-01-31T18:17:53.881Z,42.02
2024-01-31T18:20:40.704Z,42.11
2024-01-31T18:23:25.663Z,41.80
2024-01-31T18:26:10.643Z,41.82
2024-01-31T18:28:55.754Z,41.84
2024-01-31T18:31:40.868Z,41.42
2024-01-31T18:34:26.054Z,41.44
2024-01-31T18:37:11.382Z,41.47
2024-01-31T18:39:56.923Z,41.63
2024-01-31T18:42:41.780Z,41.27
2024-01-31T18:45:26.731Z,41.05
2024-01-31T18:48:11.842Z,41.89
2024-01-31T18:50:56.744Z,42.07
2024-01-31T18:53:41.635Z,41.83
2024-01-31T18:56:26.382Z,41.29
2024-01-31T18:59:11.463Z,41.89
2024-01-31T19:01:56.453Z,42.44
2024-01-31T19:04:44.473Z,42.66
2024-01-31T19:07:33.318Z,42.56
2024-01-31T19:10:18.328Z,42.80
2024-01-31T19:13:03.289Z,42.58
2024-01-31T19:15:48.245Z,42.37
2024-01-31T19:18:33.359Z,43.10
2024-01-31T19:21:18.318Z,43.47
2024-01-31T19:24:03.302Z,42.89
2024-01-31T19:26:48.492Z,42.75
2024-01-31T19:29:33.184Z,42.22
2024-01-31T19:32:18.078Z,42.55
2024-01-31T19:35:03.053Z,42.94
2024-01-31T19:37:47.919Z,42.79
2024-01-31T19:40:32.910Z,43.70
2024-01-31T19:43:17.817Z,43.85
2024-01-31T19:46:02.795Z,43.75
2024-01-31T19:48:47.670Z,43.76
2024-01-31T19:51:32.478Z,43.84
2024-01-31T19:54:17.242Z,44.27
2024-01-31T19:57:02.206Z,45.04
2024-01-31T19:59:47.175Z,44.83
2024-01-31T20:02:32.300Z,45.37
2024-01-31T20:05:17.144Z,44.82
2024-01-31T20:08:02.185Z,44.24
2024-01-31T20:10:47.127Z,44.34
2024-01-31T20:13:31.815Z,44.13
2024-01-31T20:16:16.844Z,44.09
2024-01-31T20:19:01.891Z,44.26
2024-01-31T20:21:47.076Z,43.95
2024-01-31T20:24:32.202Z,44.80
2024-01-31T20:27:17.144Z,44.09
2024-01-31T20:30:02.397Z,44.68
2024-01-31T20:32:47.200Z,44.64
2024-01-31T20:35:32.255Z,44.25
2024-01-31T20:38:21.567Z,44.70
2024-01-31T20:41:06.460Z,44.62
2024-01-31T20:43:51.522Z,44.35
2024-01-31T20:46:36.434Z,44.11
2024-01-31T20:49:21.941Z,44.40
2024-01-31T20:52:06.557Z,44.04
2024-01-31T20:54:51.533Z,44.01
2024-01-31T20:57:36.432Z,44.14
2024-01-31T21:00:22.740Z,44.08
2024-01-31T21:03:07.875Z,44.13
2024-01-31T21:05:52.769Z,44.06
2024-01-31T21:08:37.619Z,44.51
2024-01-31T21:11:22.488Z,45.18
2024-01-31T21:14:07.508Z,46.08
2024-01-31T21:16:52.404Z,45.03
2024-01-31T21:19:37.448Z,44.56
2024-01-31T21:22:22.469Z,44.26
2024-01-31T21:25:07.459Z,44.11
2024-01-31T21:27:52.519Z,43.88
2024-01-31T21:30:37.467Z,44.07
2024-01-31T21:33:22.585Z,44.07
2024-01-31T21:36:07.526Z,43.86
2024-01-31T21:38:52.620Z,44.03
2024-01-31T21:41:37.780Z,44.12
2024-01-31T21:44:22.954Z,44.85
2024-01-31T21:47:07.665Z,44.50
2024-01-31T21:49:52.640Z,43.96
2024-01-31T21:52:37.632Z,44.07
2024-01-31T21:55:22.600Z,44.24
2024-01-31T21:58:07.479Z,44.20
2024-01-31T22:00:52.404Z,44.21
2024-01-31T22:03:49.653Z,45.89
2024-01-31T22:06:39.627Z,46.62
2024-01-31T22:09:24.720Z,45.83
2024-01-31T22:12:09.822Z,45.99
2024-01-31T22:14:54.884Z,46.15
2024-01-31T22:17:40.382Z,46.49
2024-01-31T22:20:25.359Z,46.84
2024-01-31T22:23:10.275Z,46.78
2024-01-31T22:25:55.276Z,46.72
2024-01-31T22:28:40.661Z,46.18
2024-01-31T22:31:25.423Z,45.77
2024-01-31T22:34:10.082Z,45.13
2024-01-31T22:36:55.039Z,44.76
2024-01-31T22:39:40.116Z,44.61
2024-01-31T22:42:25.215Z,44.61
2024-01-31T22:45:10.076Z,44.65
2024-01-31T22:47:55.196Z,44.41
2024-01-31T22:50:39.982Z,44.35
2024-01-31T22:53:24.801Z,44.25
2024-01-31T22:56:09.793Z,44.03
2024-01-31T22:58:54.688Z,44.40
2024-01-31T23:01:39.652Z,44.38
2024-01-31T23:04:24.671Z,44.18
2024-01-31T23:07:09.706Z,44.32
2024-01-31T23:09:54.919Z,44.49
2024-01-31T23:12:39.936Z,44.28
2024-01-31T23:15:24.641Z,44.49
2024-01-31T23:18:12.668Z,44.64
2024-01-31T23:20:57.604Z,44.69
2024-01-31T23:23:42.783Z,44.88
2024-01-31T23:26:28.005Z,44.27
2024-01-31T23:29:12.958Z,44.60
2024-01-31T23:31:57.816Z,44.23
2024-01-31T23:34:42.785Z,44.63
2024-01-31T23:37:27.896Z,45.04
2024-01-31T23:40:12.950Z,44.85
2024-01-31T23:42:57.942Z,44.88
2024-01-31T23:45:42.770Z,44.80
2024-01-31T23:48:27.979Z,44.65
2024-01-31T23:51:12.821Z,44.97
2024-01-31T23:53:58.055Z,45.22
2024-01-31T23:56:42.977Z,44.89
2024-01-31T23:59:27.640Z,44.73
